Time;durP1;ratioP1;P1;durP2;ratioP2;P2;SDS_P1;SDS_P2;PMS_P1;PMS_P2;Temp;Humidity;BMP_temperature;BMP_pressure;BME280_temperature;BME280_humidity;BME280_pressure;Samples;Min_cycle;Max_cycle;Signal;HPM_P1;HPM_P2
2023/02/24 00:03:28;;;;;;;1999.90;999.90;;;7.50;99.90;;;;;;6634103;89;20730;-77
2023/02/24 00:13:29;;;;;;;1999.90;999.90;;;7.50;99.90;;;;;;6627184;88;20774;-76
2023/02/24 00:23:29;;;;;;;1999.90;999.90;;;7.40;99.90;;;;;;6611670;89;20255;-76
2023/02/24 00:33:31;;;;;;;1999.90;999.90;;;7.40;99.90;;;;;;6635274;76;20544;-77
2023/02/24 00:43:35;;;;;;;1999.90;999.90;;;7.40;99.90;;;;;;6647017;88;20500;-77
2023/02/24 00:53:37;;;;;;;1999.90;999.90;;;7.40;99.90;;;;;;6641043;89;20679;-77
2023/02/24 01:03:38;;;;;;;1999.90;999.90;;;7.40;99.90;;;;;;6640486;89;20202;-78
2023/02/24 01:13:38;;;;;;;1999.90;999.90;;;7.30;99.90;;;;;;6644054;89;20221;-77
2023/02/24 01:23:41;;;;;;;1999.90;999.90;;;7.40;99.90;;;;;;6648863;88;20348;-76
2023/02/24 01:33:44;;;;;;;1999.90;999.90;;;7.30;99.90;;;;;;6639154;89;20205;-78
2023/02/24 01:44:01;;;;;;;1999.90;999.90;;;7.30;99.90;;;;;;6641609;89;20221;-77
2023/02/24 01:54:04;;;;;;;1999.90;999.90;;;7.30;99.90;;;;;;6642114;89;20253;-77
2023/02/24 02:04:17;;;;;;;1999.90;999.90;;;7.20;99.90;;;;;;6641539;89;20232;-77
2023/02/24 02:14:21;;;;;;;1999.90;999.90;;;7.10;99.90;;;;;;6643427;88;20239;-77
2023/02/24 02:24:51;;;;;;;1999.90;999.90;;;7.00;99.90;;;;;;6639406;89;20699;-76
2023/02/24 02:35:17;;;;;;;1999.90;999.90;;;7.00;99.90;;;;;;6640290;89;20620;-78
2023/02/24 02:45:54;;;;;;;1999.90;999.90;;;7.00;99.90;;;;;;6644191;89;20190;-76
2023/02/24 02:56:19;;;;;;;1999.90;999.90;;;6.80;99.90;;;;;;6656284;88;20231;-79
2023/02/24 03:06:27;;;;;;;1999.90;999.90;;;6.70;99.90;;;;;;6669748;88;20497;-76
2023/02/24 03:16:28;;;;;;;1999.90;999.90;;;6.80;99.90;;;;;;6655347;88;20188;-77
2023/02/24 03:26:53;;;;;;;1999.90;999.90;;;6.70;99.90;;;;;;6646110;88;20303;-76
2023/02/24 03:36:54;;;;;;;1999.90;999.90;;;6.60;99.90;;;;;;6649715;88;20267;-76
2023/02/24 03:46:55;;;;;;;1999.90;999.90;;;6.60;99.90;;;;;;6642855;89;20717;-76
2023/02/24 03:57:25;;;;;;;1999.90;999.90;;;6.80;99.90;;;;;;6642562;89;20190;-77
2023/02/24 04:07:36;;;;;;;1999.90;999.90;;;6.70;99.90;;;;;;6641114;89;20213;-77
2023/02/24 04:17:42;;;;;;;1999.90;999.90;;;6.50;99.90;;;;;;6640284;89;20850;-76
2023/02/24 04:27:44;;;;;;;1999.90;999.90;;;6.40;99.90;;;;;;6644330;89;20808;-77
2023/02/24 04:37:44;;;;;;;1999.90;999.90;;;6.30;99.90;;;;;;6637691;89;20717;-78
2023/02/24 04:47:48;;;;;;;1999.90;999.90;;;6.30;99.90;;;;;;6640694;89;20398;-76
2023/02/24 04:57:52;;;;;;;1999.90;999.90;;;6.10;99.90;;;;;;6645558;89;20532;-77
2023/02/24 05:08:01;;;;;;;1999.90;999.90;;;6.10;99.90;;;;;;6645751;89;20208;-77
2023/02/24 05:18:06;;;;;;;1999.90;999.90;;;6.00;99.90;;;;;;6641427;89;21097;-76
2023/02/24 05:28:06;;;;;;;1999.90;999.90;;;5.90;99.90;;;;;;6642865;89;20201;-78
2023/02/24 05:38:07;;;;;;;1999.90;999.90;;;5.70;99.90;;;;;;6651119;88;20612;-76
2023/02/24 05:48:09;;;;;;;1999.90;999.90;;;5.70;99.90;;;;;;6647279;88;20637;-78
2023/02/24 05:58:09;;;;;;;1999.90;999.90;;;5.70;99.90;;;;;;6643649;89;21125;-77
2023/02/24 06:08:10;;;;;;;1999.90;999.90;;;5.50;99.90;;;;;;6643268;89;20298;-77
2023/02/24 06:18:11;;;;;;;1999.90;999.90;;;5.60;99.90;;;;;;6650705;89;20194;-78
2023/02/24 06:28:11;;;;;;;1999.90;999.90;;;5.60;99.90;;;;;;6661106;89;20205;-77
2023/02/24 06:49:14;;;;;;;1999.90;999.90;;;5.40;99.90;;;;;;6676342;88;20397;-77
2023/02/24 06:59:20;;;;;;;1999.90;999.90;;;5.40;99.90;;;;;;6664048;88;20308;-74
2023/02/24 07:09:23;;;;;;;1999.90;999.90;;;5.40;99.90;;;;;;6663567;88;20597;-75
2023/02/24 07:19:29;;;;;;;1999.90;999.90;;;5.50;99.90;;;;;;6680406;88;20228;-76
2023/02/24 07:29:32;;;;;;;1999.90;999.90;;;5.40;99.90;;;;;;6664845;88;20258;-76
2023/02/24 07:39:33;;;;;;;1999.90;999.90;;;5.50;99.90;;;;;;6665205;88;20210;-76
2023/02/24 07:49:35;;;;;;;1999.90;999.90;;;5.70;99.90;;;;;;6644723;88;20263;-78
2023/02/24 07:59:37;;;;;;;1999.90;999.90;;;5.90;99.90;;;;;;6643181;88;20217;-78
2023/02/24 08:19:46;;;;;;;1999.90;999.90;;;5.90;99.90;;;;;;6643492;88;20335;-76
2023/02/24 08:29:57;;;;;;;1999.90;999.90;;;6.00;99.90;;;;;;6644385;89;20986;-77
2023/02/24 08:39:58;;;;;;;1999.90;999.90;;;6.10;99.90;;;;;;6650909;89;20399;-79
2023/02/24 08:50:05;;;;;;;1999.90;999.90;;;6.30;99.90;;;;;;6650790;89;20199;-79
2023/02/24 09:00:07;;;;;;;1999.90;999.90;;;6.20;99.90;;;;;;6645953;88;20241;-77
2023/02/24 09:10:19;;;;;;;1999.90;999.90;;;6.20;99.90;;;;;;6662444;89;20213;-77
2023/02/24 09:30:37;;;;;;;1999.90;999.90;;;6.30;99.90;;;;;;6648042;88;20210;-77
2023/02/24 09:40:47;;;;;;;1999.90;999.90;;;6.50;99.90;;;;;;6649404;88;20217;-77
2023/02/24 09:51:02;;;;;;;1999.90;999.90;;;6.50;99.90;;;;;;6643475;88;20169;-79
2023/02/24 10:01:32;;;;;;;1999.90;999.90;;;6.70;99.90;;;;;;6644353;88;20197;-76
2023/02/24 10:11:32;;;;;;;1999.90;999.90;;;6.40;99.90;;;;;;6649181;88;20177;-78
2023/02/24 10:21:59;;;;;;;1999.90;999.90;;;6.40;99.90;;;;;;6649361;89;20279;-75
2023/02/24 10:32:22;;;;;;;1999.90;999.90;;;6.40;99.90;;;;;;6648412;88;20202;-76
2023/02/24 10:42:33;;;;;;;1999.90;999.90;;;6.70;99.90;;;;;;6648918;88;20722;-78
2023/02/24 10:53:09;;;;;;;1999.90;999.90;;;7.30;99.90;;;;;;6663691;88;20321;-77
2023/02/24 11:03:13;;;;;;;1999.90;999.90;;;7.10;99.90;;;;;;6666607;89;20183;-77
2023/02/24 11:23:37;;;;;;;1999.90;999.90;;;7.20;99.90;;;;;;6665708;89;20226;-78
2023/02/24 11:33:46;;;;;;;1999.90;999.90;;;7.30;99.90;;;;;;6663601;89;20245;-76
2023/02/24 11:43:58;;;;;;;1999.90;999.90;;;7.30;99.90;;;;;;6662993;88;20275;-76
2023/02/24 11:54:04;;;;;;;1999.90;999.90;;;7.50;99.90;;;;;;6670616;89;20248;-77
2023/02/24 12:04:55;;;;;;;1999.90;999.90;;;7.20;99.90;;;;;;6662510;89;20250;-76
2023/02/24 12:15:12;;;;;;;1999.90;999.90;;;7.10;99.90;;;;;;6653670;88;20652;-76
2023/02/24 12:25:13;;;;;;;1999.90;999.90;;;7.10;99.90;;;;;;6643020;89;20209;-76
2023/02/24 12:35:32;;;;;;;1999.90;999.90;;;7.00;99.90;;;;;;6642708;89;20328;-76
2023/02/24 12:46:02;;;;;;;1999.90;999.90;;;6.60;99.90;;;;;;6643313;88;20226;-76
2023/02/24 12:56:23;;;;;;;1999.90;999.90;;;6.50;99.90;;;;;;6644236;89;20717;-77
2023/02/24 13:06:39;;;;;;;1999.90;999.90;;;6.00;99.90;;;;;;6644885;88;20209;-76
2023/02/24 13:16:40;;;;;;;1999.90;999.90;;;5.90;99.90;;;;;;6644973;88;20237;-76
2023/02/24 13:26:41;;;;;;;1999.90;999.90;;;5.80;99.90;;;;;;6648832;89;20210;-79
2023/02/24 13:36:47;;;;;;;1999.90;999.90;;;5.40;99.90;;;;;;6654485;88;20248;-79
2023/02/24 13:47:07;;;;;;;1999.90;999.90;;;5.30;99.90;;;;;;6640091;89;20207;-76
2023/02/24 13:57:32;;;;;;;1999.90;999.90;;;5.40;99.90;;;;;;6646864;88;20212;-77
2023/02/24 14:07:36;;;;;;;1999.90;999.90;;;5.30;99.90;;;;;;6668530;88;20197;-77
2023/02/24 14:17:36;;;;;;;1999.90;999.90;;;5.30;99.90;;;;;;6648379;89;20648;-79
2023/02/24 14:27:38;;;;;;;1999.90;999.90;;;5.30;99.90;;;;;;6652202;88;20282;-77
2023/02/24 14:37:38;;;;;;;1999.90;999.90;;;5.20;99.90;;;;;;6645883;89;21424;-77
2023/02/24 14:47:40;;;;;;;1999.90;999.90;;;5.20;99.90;;;;;;6659152;88;20614;-77
2023/02/24 14:57:54;;;;;;;1999.90;999.90;;;5.20;99.90;;;;;;6644528;89;21085;-77
2023/02/24 15:07:54;;;;;;;1999.90;999.90;;;5.40;99.90;;;;;;6644285;88;20215;-77
2023/02/24 15:18:17;;;;;;;1999.90;999.90;;;5.30;99.90;;;;;;6644286;88;20226;-80
2023/02/24 15:28:30;;;;;;;1999.90;999.90;;;5.30;99.90;;;;;;6645695;88;20258;-77
2023/02/24 15:38:38;;;;;;;1999.90;999.90;;;5.40;99.90;;;;;;6644927;88;20256;-76
2023/02/24 15:48:42;;;;;;;1999.90;999.90;;;5.30;99.90;;;;;;6655993;89;20212;-79
2023/02/24 15:58:43;;;;;;;1999.90;999.90;;;5.20;99.90;;;;;;6649451;88;20204;-75
2023/02/24 16:08:46;;;;;;;1999.90;999.90;;;5.10;99.90;;;;;;6643990;88;20226;-76
2023/02/24 16:18:47;;;;;;;1999.90;999.90;;;5.20;99.90;;;;;;6643584;89;20258;-75
2023/02/24 16:28:56;;;;;;;1999.90;999.90;;;5.20;99.90;;;;;;6643810;88;20242;-76
2023/02/24 16:38:57;;;;;;;1999.90;999.90;;;5.10;99.90;;;;;;6644049;89;20234;-76
2023/02/24 16:48:57;;;;;;;1999.90;999.90;;;5.10;99.90;;;;;;6644358;88;20394;-76
2023/02/24 16:58:58;;;;;;;1999.90;999.90;;;5.00;99.90;;;;;;6644311;88;20226;-76
2023/02/24 17:08:58;;;;;;;1999.90;999.90;;;5.10;99.90;;;;;;6648231;88;20199;-75
2023/02/24 17:18:59;;;;;;;1999.90;999.90;;;5.10;99.90;;;;;;6643866;88;20224;-75
2023/02/24 17:29:00;;;;;;;1999.90;999.90;;;5.20;99.90;;;;;;6646363;88;20684;-77
2023/02/24 17:39:00;;;;;;;1999.90;999.90;;;5.10;99.90;;;;;;6650531;88;20212;-77
2023/02/24 17:49:03;;;;;;;1999.90;999.90;;;5.20;99.90;;;;;;6651298;77;20632;-77
2023/02/24 17:59:04;;;;;;;1999.90;999.90;;;5.20;99.90;;;;;;6692833;88;20771;-76
2023/02/24 18:09:04;;;;;;;1999.90;999.90;;;5.10;99.90;;;;;;6704636;88;20194;-78
2023/02/24 18:19:05;;;;;;;1999.90;999.90;;;5.10;99.90;;;;;;6703523;88;20246;-78
2023/02/24 18:29:06;;;;;;;1999.90;999.90;;;5.10;99.90;;;;;;6707211;88;20236;-75
2023/02/24 18:39:07;;;;;;;1999.90;999.90;;;5.20;99.90;;;;;;6702688;88;20194;-76
2023/02/24 18:49:09;;;;;;;1999.90;999.90;;;5.00;99.90;;;;;;6704622;88;20181;-74
2023/02/24 18:59:09;;;;;;;1999.90;999.90;;;5.00;99.90;;;;;;6702521;88;20188;-74
2023/02/24 19:09:10;;;;;;;1999.90;999.90;;;5.10;99.90;;;;;;6704859;88;20175;-74
2023/02/24 19:19:13;;;;;;;1999.90;999.90;;;5.00;99.90;;;;;;6703716;88;20822;-74
2023/02/24 19:29:15;;;;;;;1999.90;999.90;;;5.10;99.90;;;;;;6705054;88;20194;-75
2023/02/24 19:39:16;;;;;;;1999.90;999.90;;;5.20;99.90;;;;;;6703909;88;20236;-77
2023/02/24 19:49:16;;;;;;;1999.90;999.90;;;5.20;99.90;;;;;;6703595;88;20203;-76
2023/02/24 19:59:17;;;;;;;1999.90;999.90;;;5.30;99.90;;;;;;6715250;88;20206;-74
2023/02/24 20:09:22;;;;;;;1999.90;999.90;;;5.30;99.90;;;;;;6728076;88;20189;-75
2023/02/24 20:19:22;;;;;;;1999.90;999.90;;;4.60;99.90;;;;;;6720966;88;20613;-77
2023/02/24 20:29:23;;;;;;;1999.90;999.90;;;4.40;99.90;;;;;;6708951;88;20205;-77
2023/02/24 20:39:23;;;;;;;1999.90;999.90;;;4.40;99.90;;;;;;6698306;88;20621;-77
2023/02/24 20:49:25;;;;;;;1999.90;999.90;;;4.40;99.90;;;;;;6700737;88;20218;-76
2023/02/24 20:59:26;;;;;;;1999.90;999.90;;;4.50;99.90;;;;;;6698412;88;20233;-77
2023/02/24 21:09:26;;;;;;;1999.90;999.90;;;4.60;99.90;;;;;;6702590;88;20285;-76
2023/02/24 21:19:28;;;;;;;1999.90;999.90;;;4.60;99.90;;;;;;6706679;88;21390;-78
2023/02/24 21:29:28;;;;;;;1999.90;999.90;;;4.50;99.90;;;;;;6717081;88;20193;-79
2023/02/24 21:39:29;;;;;;;1999.90;999.90;;;4.50;99.90;;;;;;6717534;88;20256;-78
2023/02/24 21:49:29;;;;;;;1999.90;999.90;;;4.60;99.90;;;;;;6716305;88;21189;-78
2023/02/24 21:59:30;;;;;;;1999.90;999.90;;;4.60;99.90;;;;;;6712937;88;20249;-78
2023/02/24 22:09:31;;;;;;;1999.90;999.90;;;4.50;99.90;;;;;;6708254;88;20327;-78
2023/02/24 22:19:31;;;;;;;1999.90;999.90;;;4.50;99.90;;;;;;6718219;88;20278;-77
2023/02/24 22:29:32;;;;;;;1999.90;999.90;;;4.40;99.90;;;;;;6717697;88;20670;-76
2023/02/24 22:39:32;;;;;;;1999.90;999.90;;;4.40;99.90;;;;;;6713301;88;20689;-76
2023/02/24 22:49:33;;;;;;;1999.90;999.90;;;4.50;99.90;;;;;;6715940;88;20182;-77
2023/02/24 22:59:33;;;;;;;1999.90;999.90;;;4.50;99.90;;;;;;6715364;88;20533;-78
2023/02/24 23:09:34;;;;;;;1999.90;999.90;;;4.50;99.90;;;;;;6718929;88;20221;-78
2023/02/24 23:19:35;;;;;;;1999.90;999.90;;;4.50;99.90;;;;;;6709967;88;20229;-78
2023/02/24 23:29:35;;;;;;;1999.90;999.90;;;4.50;99.90;;;;;;6721467;88;20613;-77
2023/02/24 23:39:36;;;;;;;1999.90;999.90;;;4.40;99.90;;;;;;6714236;88;20237;-77
2023/02/24 23:49:36;;;;;;;1999.90;999.90;;;4.50;99.90;;;;;;6711282;88;20256;-78
2023/02/24 23:59:38;;;;;;;1999.90;999.90;;;4.50;99.90;;;;;;6712888;88;20690;-78
